Central City, PA (15926)

12:25 PM EST on March 02, 2015 (GMT -0500)
Ashtola | Change Station
CLOSE
Current Station
Personal Weather Station
Location: Windber, PA
Elevation: 2085 ft
Nearby Weather Stations

Elev 2085 ft 40.20 °N, 78.80 °W | Updated 1 minute ago

Mostly Cloudy
Mostly Cloudy
22.6 °F
Feels Like 13 °F
N
9.0
Wind Variable Wind from NNE
Gusts 9.0 mph

Today
High -- | Low -- °F
--% Chance of Precip.
Yesterday
High -- | Low -- °F
Precip. -- in
6:47 AM 6:07 PM
Waxing Gibbous, 92% visible
Pressure 30.25 in
Visibility 3.0 miles
Clouds Overcast 2000 ft
Windchill 13 °F
Dew Point 15 °F
Humidity 72%
Rainfall 0.00 in
Snow Depth Not available.
UV 2 out of 12
Pollen .50 out of 12
Air Quality Not available.
Flu Activity Not available.
SPECI KJST 021707Z AUTO 28024G33KT 3SM -SN OVC020 M05/M11 A3025 RMK AO2 PK WND 29033/1700 P0000 T10501106

More Conditions Fewer Conditions

Pressure 30.25 in
Visibility 3.0 miles
Clouds Overcast 2000 ft
Windchill 13 °F
Dew Point 15 °F
Humidity 72%
Rainfall 0.00 in
Snow Depth Not available.
UV 2 out of 12
Pollen .50 out of 12
Air Quality Not available.
Flu Activity Not available.
SPECI KJST 021707Z AUTO 28024G33KT 3SM -SN OVC020 M05/M11 A3025 RMK AO2 PK WND 29033/1700 P0000 T10501106

More Conditions Fewer Conditions

10-Day Weather Forecast

Almanac

Astronomy

Mar. 02, 2015 Rise Set
Actual Time
Civil Twilight
Nautical Twilight
Astronomical Twilight
Moon
Length of Visible Light
Length of Day
Tomorrow will be .
, % of the Moon is Illuminated

Today's Extremes

State Highs State Lows

Community

WunderPhotos

Upload Photos

1,801,866 photos uploaded!

WunderBlogs® & News

Nearby

Air Quality

  Air Quality AQ Index Pollutant
Not available.

Snow Depth

Station Depth Elevation

Earthquake Activity

City Distance Mag. Time & Date
Minimum magnitude displayed is 2.5.

Coastal Water Temperatures

Place Temperature

Nearby Weather Stations